Time,TemperatureF,DewpointF,PressureIn,WindDirection,WindDirectionDegrees,WindSpeedMPH,WindSpeedGustMPH,Humidity,HourlyPrecipIn,Conditions,Clouds,dailyrainin,SoftwareType,DateUTC
2013-10-31 00:14:00,30.0,23.0,29.42,North,-999,-999.0,-999.0,76,0.00,,,0.00,,2013-10-31 04:14:00,
2013-10-31 00:24:00,30.0,23.0,29.42,North,-999,-999.0,-999.0,76,0.00,,,0.00,,2013-10-31 04:24:00,
2013-10-31 00:43:00,31.0,24.0,29.42,North,-999,-999.0,-999.0,76,0.00,,,0.00,,2013-10-31 04:43:00,
2013-10-31 00:54:00,31.0,25.0,29.42,North,-999,-999.0,-999.0,77,0.00,,,0.00,,2013-10-31 04:54:00,
2013-10-31 01:13:00,31.0,25.0,29.42,North,-999,-999.0,-999.0,77,0.00,,,0.00,,2013-10-31 05:13:00,
2013-10-31 01:23:00,31.0,25.0,29.41,North,-999,-999.0,-999.0,77,0.00,,,0.00,,2013-10-31 05:23:00,
2013-10-31 01:33:00,31.0,25.0,29.41,North,-999,-999.0,-999.0,77,0.00,,,0.00,,2013-10-31 05:33:00,
2013-10-31 01:43:00,31.0,25.0,29.41,North,-999,-999.0,-999.0,77,0.00,,,0.00,,2013-10-31 05:43:00,
2013-10-31 01:52:00,30.0,24.0,29.41,North,-999,-999.0,-999.0,77,0.00,,,0.00,,2013-10-31 05:52:00,
2013-10-31 02:13:00,30.0,24.0,29.41,North,-999,-999.0,-999.0,78,0.00,,,0.00,,2013-10-31 06:13:00,
2013-10-31 02:22:00,30.0,24.0,29.41,North,-999,-999.0,-999.0,78,0.00,,,0.00,,2013-10-31 06:22:00,
2013-10-31 02:42:00,30.0,24.0,29.41,North,-999,-999.0,-999.0,78,0.00,,,0.00,,2013-10-31 06:42:00,
2013-10-31 02:53:00,30.0,24.0,29.40,North,-999,-999.0,-999.0,78,0.00,,,0.00,,2013-10-31 06:53:00,
2013-10-31 03:12:00,30.0,24.0,29.40,North,-999,-999.0,-999.0,78,0.00,,,0.00,,2013-10-31 07:12:00,
2013-10-31 03:22:00,30.0,24.0,29.40,North,-999,-999.0,-999.0,78,0.00,,,0.00,,2013-10-31 07:22:00,
2013-10-31 03:42:00,30.0,24.0,29.40,North,-999,-999.0,-999.0,78,0.00,,,0.00,,2013-10-31 07:42:00,
2013-10-31 03:52:00,30.0,24.0,29.40,North,-999,-999.0,-999.0,79,0.00,,,0.00,,2013-10-31 07:52:00,
2013-10-31 04:12:00,30.0,24.0,29.40,North,-999,-999.0,-999.0,79,0.00,,,0.00,,2013-10-31 08:12:00,
2013-10-31 04:22:00,30.0,24.0,29.39,North,-999,-999.0,-999.0,79,0.00,,,0.00,,2013-10-31 08:22:00,
2013-10-31 04:42:00,30.0,24.0,29.39,North,-999,-999.0,-999.0,79,0.00,,,0.00,,2013-10-31 08:42:00,
2013-10-31 04:52:00,30.0,24.0,29.38,North,-999,-999.0,-999.0,79,0.00,,,0.00,,2013-10-31 08:52:00,
2013-10-31 05:11:00,30.0,24.0,29.38,North,-999,-999.0,-999.0,79,0.00,,,0.00,,2013-10-31 09:11:00,
2013-10-31 05:22:00,30.0,24.0,29.38,North,-999,-999.0,-999.0,79,0.00,,,0.00,,2013-10-31 09:22:00,
2013-10-31 05:43:00,30.0,24.0,29.38,North,-999,-999.0,-999.0,79,0.00,,,0.00,,2013-10-31 09:43:00,
2013-10-31 05:53:00,30.0,24.0,29.38,North,-999,-999.0,-999.0,79,0.00,,,0.00,,2013-10-31 09:53:00,
2013-10-31 06:13:00,30.0,25.0,29.39,North,-999,-999.0,-999.0,80,0.00,,,0.00,,2013-10-31 10:13:00,
2013-10-31 06:23:00,30.0,25.0,29.39,North,-999,-999.0,-999.0,80,0.00,,,0.00,,2013-10-31 10:23:00,
2013-10-31 06:42:00,30.0,25.0,29.38,North,-999,-999.0,-999.0,80,0.00,,,0.00,,2013-10-31 10:42:00,
2013-10-31 06:53:00,30.0,25.0,29.38,North,-999,-999.0,-999.0,80,0.00,,,0.00,,2013-10-31 10:53:00,
2013-10-31 07:12:00,30.0,25.0,29.37,North,-999,-999.0,-999.0,80,0.00,,,0.00,,2013-10-31 11:12:00,
2013-10-31 07:22:00,30.0,25.0,29.37,North,-999,-999.0,-999.0,80,0.00,,,0.00,,2013-10-31 11:22:00,
2013-10-31 07:33:00,30.0,25.0,29.37,North,-999,-999.0,-999.0,80,0.00,,,0.00,,2013-10-31 11:33:00,
2013-10-31 07:42:00,30.0,25.0,29.37,North,-999,-999.0,-999.0,80,0.00,,,0.00,,2013-10-31 11:42:00,
2013-10-31 07:52:00,30.0,25.0,29.37,North,-999,-999.0,-999.0,80,0.00,,,0.00,,2013-10-31 11:52:00,
2013-10-31 08:12:00,31.0,26.0,29.38,North,-999,-999.0,-999.0,80,0.00,,,0.00,,2013-10-31 12:12:00,
2013-10-31 08:22:00,31.0,26.0,29.38,North,-999,-999.0,-999.0,80,0.00,,,0.00,,2013-10-31 12:22:00,
2013-10-31 08:42:00,31.0,26.0,29.38,North,-999,-999.0,-999.0,80,0.00,,,0.00,,2013-10-31 12:42:00,
2013-10-31 08:52:00,31.0,26.0,29.38,North,-999,-999.0,-999.0,80,0.00,,,0.00,,2013-10-31 12:52:00,
2013-10-31 09:12:00,33.0,28.0,29.39,North,-999,-999.0,-999.0,80,0.00,,,0.00,,2013-10-31 13:12:00,
2013-10-31 09:22:00,34.0,28.0,29.40,North,-999,-999.0,-999.0,80,0.00,,,0.00,,2013-10-31 13:22:00,
2013-10-31 09:42:00,34.0,28.0,29.38,North,-999,-999.0,-999.0,80,0.00,,,0.00,,2013-10-31 13:42:00,
2013-10-31 09:52:00,37.0,32.0,29.38,North,-999,-999.0,-999.0,81,0.00,,,0.00,,2013-10-31 13:52:00,
2013-10-31 10:11:00,38.0,32.0,29.37,North,-999,-999.0,-999.0,80,0.00,,,0.00,,2013-10-31 14:11:00,
2013-10-31 10:22:00,38.0,32.0,29.37,North,-999,-999.0,-999.0,80,0.00,,,0.00,,2013-10-31 14:22:00,
2013-10-31 10:42:00,39.0,33.0,29.36,North,-999,-999.0,-999.0,80,0.00,,,0.00,,2013-10-31 14:42:00,
2013-10-31 10:52:00,39.0,33.0,29.35,North,-999,-999.0,-999.0,80,0.00,,,0.00,,2013-10-31 14:52:00,
2013-10-31 11:11:00,40.0,34.0,29.34,North,-999,-999.0,-999.0,80,0.00,,,0.00,,2013-10-31 15:11:00,
2013-10-31 12:23:00,45.0,39.0,29.31,North,-999,-999.0,-999.0,78,0.00,,,0.00,,2013-10-31 16:23:00,
2013-10-31 12:53:00,46.0,39.0,29.30,North,-999,-999.0,-999.0,77,0.00,,,0.00,,2013-10-31 16:53:00,
2013-10-31 13:12:00,47.0,40.0,29.28,North,-999,-999.0,-999.0,77,0.00,,,0.00,,2013-10-31 17:12:00,
2013-10-31 13:22:00,47.0,40.0,29.28,North,-999,-999.0,-999.0,77,0.00,,,0.00,,2013-10-31 17:22:00,
2013-10-31 13:43:00,48.0,41.0,29.28,North,-999,-999.0,-999.0,77,0.00,,,0.00,,2013-10-31 17:43:00,
2013-10-31 13:52:00,48.0,41.0,29.26,North,-999,-999.0,-999.0,78,0.00,,,0.00,,2013-10-31 17:52:00,
2013-10-31 14:22:00,48.0,42.0,29.24,North,-999,-999.0,-999.0,80,0.00,,,0.00,,2013-10-31 18:22:00,
2013-10-31 14:42:00,48.0,42.0,29.23,North,-999,-999.0,-999.0,80,0.00,,,0.00,,2013-10-31 18:42:00,
2013-10-31 14:52:00,48.0,42.0,29.22,North,-999,-999.0,-999.0,80,0.00,,,0.00,,2013-10-31 18:52:00,
2013-10-31 15:22:00,48.0,42.0,29.20,North,-999,-999.0,-999.0,81,0.00,,,0.00,,2013-10-31 19:22:00,
2013-10-31 15:52:00,48.0,43.0,29.19,North,-999,-999.0,-999.0,82,0.00,,,0.00,,2013-10-31 19:52:00,
2013-10-31 16:22:00,48.0,43.0,29.17,North,-999,-999.0,-999.0,82,0.00,,,0.00,,2013-10-31 20:22:00,
2013-10-31 16:42:00,49.0,44.0,29.17,North,-999,-999.0,-999.0,83,0.00,,,0.00,,2013-10-31 20:42:00,
2013-10-31 16:52:00,49.0,44.0,29.17,North,-999,-999.0,-999.0,83,0.00,,,0.00,,2013-10-31 20:52:00,
2013-10-31 17:11:00,49.0,44.0,29.17,North,-999,-999.0,-999.0,83,0.00,,,0.00,,2013-10-31 21:11:00,
2013-10-31 17:22:00,49.0,44.0,29.16,North,-999,-999.0,-999.0,84,0.00,,,0.00,,2013-10-31 21:22:00,
2013-10-31 17:44:00,50.0,45.0,29.15,North,-999,-999.0,-999.0,84,0.00,,,0.00,,2013-10-31 21:44:00,
2013-10-31 17:54:00,50.0,46.0,29.14,North,-999,-999.0,-999.0,85,0.00,,,0.00,,2013-10-31 21:54:00,
2013-10-31 18:14:00,50.0,46.0,29.14,North,-999,-999.0,-999.0,85,0.00,,,0.00,,2013-10-31 22:14:00,
2013-10-31 18:24:00,50.0,46.0,29.12,North,-999,-999.0,-999.0,85,0.00,,,0.00,,2013-10-31 22:24:00,
2013-10-31 18:43:00,50.0,46.0,29.12,North,-999,-999.0,-999.0,85,0.00,,,0.00,,2013-10-31 22:43:00,
2013-10-31 18:53:00,51.0,47.0,29.11,North,-999,-999.0,-999.0,85,0.00,,,0.00,,2013-10-31 22:53:00,
2013-10-31 19:22:00,51.0,47.0,29.11,North,-999,-999.0,-999.0,85,0.00,,,0.00,,2013-10-31 23:22:00,
2013-10-31 19:53:00,52.0,48.0,29.10,North,-999,-999.0,-999.0,86,0.00,,,0.00,,2013-10-31 23:53:00,
2013-10-31 20:12:00,52.0,48.0,29.10,North,-999,-999.0,-999.0,86,0.00,,,0.00,,2013-11-01 00:12:00,
2013-10-31 20:21:00,52.0,48.0,29.08,North,-999,-999.0,-999.0,86,0.00,,,0.00,,2013-11-01 00:21:00,
2013-10-31 20:42:00,53.0,49.0,29.06,North,-999,-999.0,-999.0,86,0.00,,,0.00,,2013-11-01 00:42:00,
2013-10-31 20:52:00,53.0,49.0,29.06,North,-999,-999.0,-999.0,86,0.00,,,0.00,,2013-11-01 00:52:00,
2013-10-31 21:12:00,53.0,49.0,29.06,North,-999,-999.0,-999.0,86,0.00,,,0.00,,2013-11-01 01:12:00,
2013-10-31 21:22:00,54.0,50.0,29.06,North,-999,-999.0,-999.0,86,0.00,,,0.00,,2013-11-01 01:22:00,
2013-10-31 21:42:00,54.0,50.0,29.04,North,-999,-999.0,-999.0,86,0.00,,,0.00,,2013-11-01 01:42:00,
2013-10-31 21:52:00,55.0,51.0,29.03,North,-999,-999.0,-999.0,87,0.00,,,0.00,,2013-11-01 01:52:00,
2013-10-31 22:22:00,55.0,51.0,29.02,North,-999,-999.0,-999.0,87,0.00,,,0.00,,2013-11-01 02:22:00,
2013-10-31 22:42:00,55.0,51.0,29.02,North,-999,-999.0,-999.0,87,0.00,,,0.00,,2013-11-01 02:42:00,
2013-10-31 22:52:00,55.0,51.0,29.01,North,-999,-999.0,-999.0,87,0.00,,,0.00,,2013-11-01 02:52:00,
2013-10-31 23:12:00,55.0,51.0,29.00,North,-999,-999.0,-999.0,87,0.00,,,0.00,,2013-11-01 03:12:00,
2013-10-31 23:22:00,56.0,52.0,28.99,North,-999,-999.0,-999.0,87,0.00,,,0.00,,2013-11-01 03:22:00,
2013-10-31 23:45:00,56.0,52.0,28.99,North,-999,-999.0,-999.0,87,0.00,,,0.00,,2013-11-01 03:45:00,
2013-10-31 23:54:00,56.0,52.0,28.98,North,-999,-999.0,-999.0,87,0.00,,,0.00,,2013-11-01 03:54:00,